createdAt,value
2015-04-28T00:00:09.451Z,94270
2015-04-28T00:00:27.751Z,94264
2015-04-28T00:00:46.235Z,94267
2015-04-28T00:01:04.688Z,94267
2015-04-28T00:01:22.470Z,94272
2015-04-28T00:01:40.925Z,94280
2015-04-28T00:01:59.440Z,94269
2015-04-28T00:02:17.894Z,94269
2015-04-28T00:02:36.475Z,94277
2015-04-28T00:02:54.772Z,94274
2015-04-28T00:03:13.225Z,94266
2015-04-28T00:03:31.695Z,94271
2015-04-28T00:03:50.211Z,94277
2015-04-28T00:04:07.961Z,94271
2015-04-28T00:04:26.570Z,94277
2015-04-28T00:04:45.088Z,94274
2015-04-28T00:05:03.479Z,94274
2015-04-28T00:05:22.119Z,94260
2015-04-28T00:05:40.559Z,94271
2015-04-28T00:05:59.184Z,94271
2015-04-28T00:06:17.590Z,94274
2015-04-28T00:06:35.999Z,94280
2015-04-28T00:06:54.531Z,94274
2015-04-28T00:07:12.952Z,94268
2015-04-28T00:07:31.376Z,94271
2015-04-28T00:07:49.798Z,94280
2015-04-28T00:08:08.204Z,94274
2015-04-28T00:08:26.704Z,94279
2015-04-28T00:08:45.082Z,94282
2015-04-28T00:09:03.504Z,94267
2015-04-28T00:09:21.911Z,94281
2015-04-28T00:09:40.318Z,94284
2015-04-28T00:09:58.943Z,94284
2015-04-28T00:10:17.380Z,94287
2015-04-28T00:10:36.055Z,94281
2015-04-28T00:10:54.446Z,94281
2015-04-28T00:11:12.930Z,94278
2015-04-28T00:11:31.543Z,94280
2015-04-28T00:11:50.043Z,94280
2015-04-28T00:12:08.558Z,94287
2015-04-28T00:12:27.027Z,94282
2015-04-28T00:12:45.498Z,94277
2015-04-28T00:13:03.951Z,94275
2015-04-28T00:13:22.732Z,94289
2015-04-28T00:13:41.328Z,94284
2015-04-28T00:13:59.734Z,94288
2015-04-28T00:14:18.125Z,94280
2015-04-28T00:14:36.517Z,94275
2015-04-28T00:14:54.955Z,94278
2015-04-28T00:15:13.408Z,94276
2015-04-28T00:15:31.861Z,94285
2015-04-28T00:15:50.661Z,94280
2015-04-28T00:16:09.098Z,94294
2015-04-28T00:16:27.739Z,94283
2015-04-28T00:16:46.350Z,94286
2015-04-28T00:17:04.975Z,94287
2015-04-28T00:17:23.569Z,94293
2015-04-28T00:17:41.946Z,94287
2015-04-28T00:18:00.415Z,94290
2015-04-28T00:18:18.884Z,94290
2015-04-28T00:18:37.276Z,94287
2015-04-28T00:18:55.792Z,94302
2015-04-28T00:19:14.183Z,94296
2015-04-28T00:19:32.589Z,94290
2015-04-28T00:19:51.389Z,94298
2015-04-28T00:20:09.873Z,94278
2015-04-28T00:20:28.264Z,94284
2015-04-28T00:20:46.766Z,94283
2015-04-28T00:21:05.297Z,94286
2015-04-28T00:21:23.703Z,94288
2015-04-28T00:21:42.206Z,94288
2015-04-28T00:22:00.722Z,94290
2015-04-28T00:22:19.144Z,94293
2015-04-28T00:22:37.771Z,94287
2015-04-28T00:22:56.333Z,94289
2015-04-28T00:23:14.927Z,94291
2015-04-28T00:23:33.583Z,94288
2015-04-28T00:23:52.179Z,94291
2015-04-28T00:24:10.679Z,94282
2015-04-28T00:24:29.382Z,94280
2015-04-28T00:24:47.790Z,94288
2015-04-28T00:25:06.243Z,94291
2015-04-28T00:25:24.806Z,94285
2015-04-28T00:25:43.200Z,94288
2015-04-28T00:26:01.793Z,94284
2015-04-28T00:26:20.184Z,94281
2015-04-28T00:26:38.717Z,94284
2015-04-28T00:26:57.217Z,94286
2015-04-28T00:27:15.748Z,94291
2015-04-28T00:27:34.217Z,94291
2015-04-28T00:27:53.250Z,94285
2015-04-28T00:28:11.672Z,94290
2015-04-28T00:28:30.266Z,94284
2015-04-28T00:28:48.878Z,94286
2015-04-28T00:29:07.503Z,94289
2015-04-28T00:29:25.910Z,94286
2015-04-28T00:29:44.459Z,94291
2015-04-28T00:30:02.990Z,94291
2015-04-28T00:30:21.396Z,94282
2015-04-28T00:30:39.836Z,94296
2015-04-28T00:30:58.336Z,94288
2015-04-28T00:31:16.929Z,94288
2015-04-28T00:31:35.476Z,94296
2015-04-28T00:31:53.901Z,94293
2015-04-28T00:32:12.573Z,94293
2015-04-28T00:32:31.214Z,94297
2015-04-28T00:32:49.997Z,94294
2015-04-28T00:33:08.575Z,94294
2015-04-28T00:33:26.981Z,94295
2015-04-28T00:33:45.514Z,94295
2015-04-28T00:34:03.968Z,94301
2015-04-28T00:34:22.358Z,94299
2015-04-28T00:34:40.986Z,94299
2015-04-28T00:34:59.471Z,94302
2015-04-28T00:35:17.971Z,94297
2015-04-28T00:35:36.361Z,94294
2015-04-28T00:35:54.754Z,94306
2015-04-28T00:36:13.160Z,94292
2015-04-28T00:36:31.566Z,94300
2015-04-28T00:36:49.991Z,94306
2015-04-28T00:37:08.522Z,94310
2015-04-28T00:37:26.991Z,94318
2015-04-28T00:37:45.478Z,94307
2015-04-28T00:38:04.087Z,94304
2015-04-28T00:38:22.478Z,94302
2015-04-28T00:38:40.884Z,94302
2015-04-28T00:38:59.292Z,94305
2015-04-28T00:39:17.761Z,94297
2015-04-28T00:39:36.261Z,94309
2015-04-28T00:39:54.778Z,94303
2015-04-28T00:40:13.216Z,94309
2015-04-28T00:40:31.638Z,94304
2015-04-28T00:40:50.171Z,94307
2015-04-28T00:41:08.655Z,94307
2015-04-28T00:41:27.109Z,94299
2015-04-28T00:41:45.721Z,94307
2015-04-28T00:42:04.455Z,94304
2015-04-28T00:42:22.846Z,94305
2015-04-28T00:42:41.315Z,94310
2015-04-28T00:42:59.708Z,94310
2015-04-28T00:43:18.208Z,94310
2015-04-28T00:43:35.943Z,94305
2015-04-28T00:43:54.476Z,94316
2015-04-28T00:44:13.023Z,94305
2015-04-28T00:44:31.445Z,94294
2015-04-28T00:44:49.869Z,94308
2015-04-28T00:45:08.290Z,94309
2015-04-28T00:45:26.869Z,94303
2015-04-28T00:45:45.478Z,94304
2015-04-28T00:46:04.246Z,94298
2015-04-28T00:46:22.871Z,94304
2015-04-28T00:46:41.324Z,94310
2015-04-28T00:46:59.920Z,94313
2015-04-28T00:47:18.327Z,94307
2015-04-28T00:47:36.749Z,94304
2015-04-28T00:47:55.094Z,94304
2015-04-28T00:48:13.422Z,94312
2015-04-28T00:48:31.797Z,94303
2015-04-28T00:48:49.628Z,94306
2015-04-28T00:49:07.909Z,94309
2015-04-28T00:49:26.409Z,94309
2015-04-28T00:49:44.753Z,94306
2015-04-28T00:50:03.208Z,94309
2015-04-28T00:50:21.551Z,94310
2015-04-28T00:50:39.880Z,94312
2015-04-28T00:50:58.272Z,94316
2015-04-28T00:51:16.569Z,94307
2015-04-28T00:51:35.085Z,94308
2015-04-28T00:51:53.385Z,94313
2015-04-28T00:52:11.806Z,94305
2015-04-28T00:52:30.228Z,94314
2015-04-28T00:52:47.994Z,94303
2015-04-28T00:53:06.340Z,94311
2015-04-28T00:53:24.637Z,94305
2015-04-28T00:53:43.027Z,94308
2015-04-28T00:54:01.530Z,94308
2015-04-28T00:54:20.015Z,94311
2015-04-28T00:54:38.343Z,94305
2015-04-28T00:54:56.782Z,94314
2015-04-28T00:55:15.110Z,94319
2015-04-28T00:55:33.548Z,94313
2015-04-28T00:55:52.066Z,94319
2015-04-28T00:56:10.457Z,94316
2015-04-28T00:56:28.754Z,94310
2015-04-28T00:56:47.051Z,94321
2015-04-28T00:57:05.522Z,94315
2015-04-28T00:57:23.272Z,94315
2015-04-28T00:57:41.662Z,94321
2015-04-28T00:57:59.977Z,94323
2015-04-28T00:58:18.274Z,94320
2015-04-28T00:58:36.695Z,94314
2015-04-28T00:58:55.026Z,94314
2015-04-28T00:59:13.572Z,94325
2015-04-28T00:59:32.119Z,94328
2015-04-28T00:59:50.463Z,94319
2015-04-28T01:00:08.763Z,94316
2015-04-28T01:00:27.154Z,94324
2015-04-28T01:00:45.450Z,94319
2015-04-28T01:01:03.812Z,94316
2015-04-28T01:01:22.249Z,94318
2015-04-28T01:01:40.624Z,94312
2015-04-28T01:01:58.923Z,94326
2015-04-28T01:02:17.314Z,94323
2015-04-28T01:02:35.611Z,94311
2015-04-28T01:02:54.051Z,94306
2015-04-28T01:03:11.192Z,94314
2015-04-28T01:03:29.536Z,94316
2015-04-28T01:03:47.817Z,94319
2015-04-28T01:04:06.288Z,94311
2015-04-28T01:04:24.600Z,94311
2015-04-28T01:04:42.913Z,94311
2015-04-28T01:05:01.446Z,94308
2015-04-28T01:05:19.883Z,94311
2015-04-28T01:05:38.415Z,94314
2015-04-28T01:05:56.746Z,94309
2015-04-28T01:06:14.558Z,94303
2015-04-28T01:06:32.964Z,94306
2015-04-28T01:06:51.261Z,94306
2015-04-28T01:07:09.560Z,94306
2015-04-28T01:07:27.873Z,94311
2015-04-28T01:07:46.279Z,94300
2015-04-28T01:08:04.734Z,94311
2015-04-28T01:08:23.234Z,94311
2015-04-28T01:08:41.531Z,94308
2015-04-28T01:08:59.893Z,94305
2015-04-28T01:09:18.315Z,94311
2015-04-28T01:09:36.331Z,94311
2015-04-28T01:09:54.706Z,94313
2015-04-28T01:10:13.239Z,94316
2015-04-28T01:10:31.552Z,94304
2015-04-28T01:10:49.895Z,94307
2015-04-28T01:11:08.226Z,94313
2015-04-28T01:11:26.523Z,94307
2015-04-28T01:11:44.914Z,94312
2015-04-28T01:12:03.385Z,94309
2015-04-28T01:12:21.728Z,94306
2015-04-28T01:12:40.197Z,94306
2015-04-28T01:12:58.792Z,94309
2015-04-28T01:13:17.229Z,94303
2015-04-28T01:13:35.745Z,94316
2015-04-28T01:13:54.073Z,94313
2015-04-28T01:14:12.483Z,94313
2015-04-28T01:14:30.921Z,94316
2015-04-28T01:14:49.312Z,94318
2015-04-28T01:15:07.642Z,94326
2015-04-28T01:15:25.985Z,94317
2015-04-28T01:15:44.329Z,94323
2015-04-28T01:16:02.628Z,94314
2015-04-28T01:16:21.050Z,94325
2015-04-28T01:16:39.456Z,94327
2015-04-28T01:16:57.972Z,94316
2015-04-28T01:17:16.333Z,94327
2015-04-28T01:17:34.818Z,94324
2015-04-28T01:17:53.271Z,94321
2015-04-28T01:18:11.835Z,94329
2015-04-28T01:18:30.335Z,94320
2015-04-28T01:18:48.898Z,94320
2015-04-28T01:19:07.306Z,94325
2015-04-28T01:19:25.603Z,94325
2015-04-28T01:19:44.368Z,94322
2015-04-28T01:20:02.684Z,94324
2015-04-28T01:20:21.028Z,94327
2015-04-28T01:20:39.434Z,94329
2015-04-28T01:20:57.934Z,94323
2015-04-28T01:21:16.327Z,94323
2015-04-28T01:21:34.858Z,94322
2015-04-28T01:21:53.248Z,94325
2015-04-28T01:22:11.642Z,94328
2015-04-28T01:22:30.205Z,94330
2015-04-28T01:22:48.595Z,94330
2015-04-28T01:23:06.425Z,94333
2015-04-28T01:23:25.253Z,94333
2015-04-28T01:23:43.816Z,94327
2015-04-28T01:24:02.256Z,94330
2015-04-28T01:24:20.569Z,94333
2015-04-28T01:24:39.100Z,94333
2015-04-28T01:24:57.553Z,94324
2015-04-28T01:25:15.898Z,94330
2015-04-28T01:25:34.429Z,94324
2015-04-28T01:25:52.773Z,94330
2015-04-28T01:26:11.151Z,94324
2015-04-28T01:26:29.448Z,94324
2015-04-28T01:26:47.823Z,94321
2015-04-28T01:27:06.154Z,94324
2015-04-28T01:27:24.732Z,94318
2015-04-28T01:27:43.185Z,94327
2015-04-28T01:28:01.826Z,94321
2015-04-28T01:28:20.265Z,94327
2015-04-28T01:28:38.703Z,94330
2015-04-28T01:28:57.000Z,94328
2015-04-28T01:29:15.471Z,94336
2015-04-28T01:29:33.767Z,94331
2015-04-28T01:29:52.252Z,94331
2015-04-28T01:30:10.567Z,94332
2015-04-28T01:30:28.895Z,94332
2015-04-28T01:30:47.270Z,94341
2015-04-28T01:31:05.585Z,94333
2015-04-28T01:31:23.882Z,94333
2015-04-28T01:31:42.210Z,94342
2015-04-28T01:32:00.554Z,94325
2015-04-28T01:32:19.103Z,94325
2015-04-28T01:32:37.446Z,94331
2015-04-28T01:32:56.056Z,94337
2015-04-28T01:33:14.480Z,94325
2015-04-28T01:33:32.792Z,94337
2015-04-28T01:33:51.198Z,94331
2015-04-28T01:34:09.842Z,94337
2015-04-28T01:34:28.248Z,94320
2015-04-28T01:34:46.608Z,94325
2015-04-28T01:35:04.920Z,94334
2015-04-28T01:35:23.297Z,94319
2015-04-28T01:35:41.063Z,94330
2015-04-28T01:35:59.625Z,94333
2015-04-28T01:36:17.972Z,94333
2015-04-28T01:36:35.175Z,94333
2015-04-28T01:36:53.534Z,94322
2015-04-28T01:37:11.833Z,94330
2015-04-28T01:37:30.161Z,94324
2015-04-28T01:37:48.536Z,94335
2015-04-28T01:38:06.896Z,94326
2015-04-28T01:38:25.429Z,94320
2015-04-28T01:38:43.773Z,94326
2015-04-28T01:39:02.085Z,94317
2015-04-28T01:39:20.587Z,94328
2015-04-28T01:39:38.962Z,94327
2015-04-28T01:39:57.259Z,94324
2015-04-28T01:40:15.558Z,94330
2015-04-28T01:40:33.871Z,94341
2015-04-28T01:40:52.230Z,94329
2015-04-28T01:41:10.605Z,94326
2015-04-28T01:41:28.920Z,94329
2015-04-28T01:41:47.483Z,94326
2015-04-28T01:42:05.874Z,94320
2015-04-28T01:42:24.172Z,94326
2015-04-28T01:42:42.532Z,94325
2015-04-28T01:43:00.876Z,94328
2015-04-28T01:43:19.191Z,94319
2015-04-28T01:43:37.707Z,94333
2015-04-28T01:43:55.597Z,94327
2015-04-28T01:44:14.115Z,94329
2015-04-28T01:44:32.443Z,94329
2015-04-28T01:44:50.787Z,94323
2015-04-28T01:45:09.334Z,94331
2015-04-28T01:45:27.648Z,94331
2015-04-28T01:45:46.320Z,94333
2015-04-28T01:46:04.633Z,94328
2015-04-28T01:46:22.447Z,94330
2015-04-28T01:46:40.963Z,94324
2015-04-28T01:46:58.838Z,94324
2015-04-28T01:47:17.138Z,94330
2015-04-28T01:47:35.434Z,94327
2015-04-28T01:47:53.544Z,94321
2015-04-28T01:48:11.497Z,94329
2015-04-28T01:48:30.015Z,94323
2015-04-28T01:48:48.358Z,94329
2015-04-28T01:49:06.765Z,94334
2015-04-28T01:49:25.174Z,94329
2015-04-28T01:49:43.533Z,94334
2015-04-28T01:50:02.064Z,94331
2015-04-28T01:50:20.363Z,94334
2015-04-28T01:50:38.770Z,94326
2015-04-28T01:50:57.160Z,94325
2015-04-28T01:51:15.459Z,94328
2015-04-28T01:51:33.772Z,94328
2015-04-28T01:51:52.240Z,94325
2015-04-28T01:52:10.537Z,94325
2015-04-28T01:52:28.836Z,94333
2015-04-28T01:52:47.180Z,94330
2015-04-28T01:53:05.477Z,94333
2015-04-28T01:53:23.855Z,94333
2015-04-28T01:53:42.261Z,94327
2015-04-28T01:54:00.948Z,94332
2015-04-28T01:54:18.717Z,94335
2015-04-28T01:54:37.092Z,94340
2015-04-28T01:54:55.670Z,94329
2015-04-28T01:55:13.967Z,94332
2015-04-28T01:55:32.468Z,94329
2015-04-28T01:55:50.921Z,94334
2015-04-28T01:56:09.312Z,94337
2015-04-28T01:56:27.862Z,94337
2015-04-28T01:56:46.549Z,94334
2015-04-28T01:57:04.377Z,94342
2015-04-28T01:57:22.801Z,94333
2015-04-28T01:57:41.114Z,94336
2015-04-28T01:57:59.411Z,94339
2015-04-28T01:58:17.803Z,94338
2015-04-28T01:58:36.225Z,94341
2015-04-28T01:58:54.584Z,94344
2015-04-28T01:59:13.084Z,94344
2015-04-28T01:59:31.416Z,94338
2015-04-28T01:59:49.931Z,94340
2015-04-28T02:00:08.462Z,94343
2015-04-28T02:00:26.214Z,94334
2015-04-28T02:00:44.886Z,94343
2015-04-28T02:01:03.324Z,94340
2015-04-28T02:01:21.702Z,94346
2015-04-28T02:01:40.046Z,94340
2015-04-28T02:01:57.842Z,94351
2015-04-28T02:02:16.202Z,94348
2015-04-28T02:02:34.704Z,94339
2015-04-28T02:02:53.219Z,94334
2015-04-28T02:03:11.001Z,94342
2015-04-28T02:03:29.456Z,94339
2015-04-28T02:03:47.096Z,94345
2015-04-28T02:04:05.612Z,94342
2015-04-28T02:04:23.927Z,94345
2015-04-28T02:04:42.458Z,94345
2015-04-28T02:05:01.177Z,94353
2015-04-28T02:05:19.489Z,94350
2015-04-28T02:05:37.492Z,94342
2015-04-28T02:05:55.851Z,94342
2015-04-28T02:06:14.398Z,94350
2015-04-28T02:06:32.510Z,94355
2015-04-28T02:06:50.916Z,94350
2015-04-28T02:07:08.838Z,94353
2015-04-28T02:07:27.513Z,94355
2015-04-28T02:07:45.888Z,94350
2015-04-28T02:08:03.810Z,94355
2015-04-28T02:08:22.153Z,94355
2015-04-28T02:08:40.593Z,94353
2015-04-28T02:08:58.999Z,94353
2015-04-28T02:09:17.124Z,94360
2015-04-28T02:09:35.657Z,94353
2015-04-28T02:09:53.454Z,94355
2015-04-28T02:10:11.876Z,94355
2015-04-28T02:10:30.222Z,94362
2015-04-28T02:10:48.816Z,94349
2015-04-28T02:11:07.331Z,94355
2015-04-28T02:11:25.678Z,94354
2015-04-28T02:11:44.209Z,94362
2015-04-28T02:12:02.725Z,94356
2015-04-28T02:12:21.069Z,94359
2015-04-28T02:12:39.555Z,94361
2015-04-28T02:12:57.852Z,94358
2015-04-28T02:13:16.196Z,94358
2015-04-28T02:13:34.713Z,94360
2015-04-28T02:13:52.854Z,94355
2015-04-28T02:14:11.369Z,94357
2015-04-28T02:14:29.685Z,94355
2015-04-28T02:14:47.997Z,94355
2015-04-28T02:15:06.419Z,94360
2015-04-28T02:15:24.826Z,94355
2015-04-28T02:15:43.171Z,94357
2015-04-28T02:16:01.640Z,94355
2015-04-28T02:16:20.062Z,94363
2015-04-28T02:16:38.486Z,94357
2015-04-28T02:16:56.767Z,94360
2015-04-28T02:17:15.064Z,94352
2015-04-28T02:17:33.551Z,94352
2015-04-28T02:17:51.911Z,94359
2015-04-28T02:18:10.270Z,94359
2015-04-28T02:18:27.974Z,94359
2015-04-28T02:18:46.365Z,94354
2015-04-28T02:19:04.677Z,94356
2015-04-28T02:19:22.552Z,94359
2015-04-28T02:19:40.868Z,94359
2015-04-28T02:19:58.712Z,94356
2015-04-28T02:20:17.133Z,94356
2015-04-28T02:20:35.621Z,94358
2015-04-28T02:20:53.933Z,94355
2015-04-28T02:21:12.246Z,94353
2015-04-28T02:21:30.637Z,94355
2015-04-28T02:21:48.997Z,94364
2015-04-28T02:22:07.497Z,94361
2015-04-28T02:22:25.294Z,94350
2015-04-28T02:22:43.844Z,94353
2015-04-28T02:23:01.640Z,94363
2015-04-28T02:23:19.984Z,94363
2015-04-28T02:23:38.330Z,94363
2015-04-28T02:23:56.017Z,94366
2015-04-28T02:24:14.486Z,94355
2015-04-28T02:24:32.895Z,94350
2015-04-28T02:24:51.317Z,94368
2015-04-28T02:25:09.833Z,94360
2015-04-28T02:25:28.130Z,94363
2015-04-28T02:25:46.522Z,94355
2015-04-28T02:26:04.882Z,94357
2015-04-28T02:26:23.226Z,94363
2015-04-28T02:26:41.604Z,94360
2015-04-28T02:26:59.963Z,94363
2015-04-28T02:27:17.104Z,94363
2015-04-28T02:27:35.481Z,94360
2015-04-28T02:27:53.856Z,94368
2015-04-28T02:28:12.231Z,94365
2015-04-28T02:28:30.779Z,94371
2015-04-28T02:28:49.342Z,94368
2015-04-28T02:29:07.748Z,94360
2015-04-28T02:29:26.076Z,94368
2015-04-28T02:29:44.672Z,94360
2015-04-28T02:30:03.266Z,94368
2015-04-28T02:30:21.563Z,94368
2015-04-28T02:30:39.988Z,94368
2015-04-28T02:30:58.472Z,94374
2015-04-28T02:31:17.050Z,94368
2015-04-28T02:31:35.551Z,94368
2015-04-28T02:31:53.989Z,94362
2015-04-28T02:32:12.504Z,94365
2015-04-28T02:32:30.801Z,94362
2015-04-28T02:32:49.210Z,94368
2015-04-28T02:33:07.570Z,94371
2015-04-28T02:33:25.929Z,94362
2015-04-28T02:33:44.275Z,94365
2015-04-28T02:34:02.728Z,94365
2015-04-28T02:34:21.072Z,94367
2015-04-28T02:34:39.403Z,94370
2015-04-28T02:34:57.731Z,94373
2015-04-28T02:35:16.043Z,94372
2015-04-28T02:35:34.405Z,94364
2015-04-28T02:35:52.686Z,94370
2015-04-28T02:36:10.983Z,94372
2015-04-28T02:36:29.467Z,94370
2015-04-28T02:36:47.766Z,94355
2015-04-28T02:37:06.079Z,94367
2015-04-28T02:37:24.422Z,94361
2015-04-28T02:37:42.738Z,94367
2015-04-28T02:38:01.191Z,94372
2015-04-28T02:38:19.644Z,94364
2015-04-28T02:38:37.974Z,94361
2015-04-28T02:38:56.427Z,94378
2015-04-28T02:39:14.865Z,94366
2015-04-28T02:39:33.224Z,94372
2015-04-28T02:39:51.539Z,94367
2015-04-28T02:40:09.883Z,94372
2015-04-28T02:40:28.242Z,94367
2015-04-28T02:40:46.713Z,94370
2015-04-28T02:41:05.041Z,94370
2015-04-28T02:41:23.572Z,94364
2015-04-28T02:41:42.059Z,94364
2015-04-28T02:42:00.497Z,94364
2015-04-28T02:42:18.919Z,94364
2015-04-28T02:42:37.344Z,94370
2015-04-28T02:42:55.125Z,94367
2015-04-28T02:43:13.766Z,94368
2015-04-28T02:43:32.062Z,94368
2015-04-28T02:43:50.408Z,94373
2015-04-28T02:44:08.814Z,94371
2015-04-28T02:44:27.189Z,94371
2015-04-28T02:44:45.504Z,94362
2015-04-28T02:45:03.910Z,94377
2015-04-28T02:45:22.223Z,94366
2015-04-28T02:45:40.615Z,94372
2015-04-28T02:45:58.990Z,94374
2015-04-28T02:46:17.365Z,94361
2015-04-28T02:46:35.693Z,94372
2015-04-28T02:46:53.993Z,94367
2015-04-28T02:47:12.290Z,94367
2015-04-28T02:47:30.603Z,94367
2015-04-28T02:47:48.902Z,94367
2015-04-28T02:48:07.245Z,94365
2015-04-28T02:48:25.730Z,94371
2015-04-28T02:48:44.030Z,94374
2015-04-28T02:49:02.326Z,94368
2015-04-28T02:49:20.623Z,94369
2015-04-28T02:49:39.045Z,94366
2015-04-28T02:49:57.344Z,94368
2015-04-28T02:50:15.719Z,94365
2015-04-28T02:50:34.219Z,94374
2015-04-28T02:50:52.549Z,94371
2015-04-28T02:51:10.955Z,94365
2015-04-28T02:51:29.330Z,94362
2015-04-28T02:51:47.707Z,94370
2015-04-28T02:52:06.020Z,94368
2015-04-28T02:52:24.301Z,94371
2015-04-28T02:52:42.617Z,94373
2015-04-28T02:53:00.976Z,94371
2015-04-28T02:53:19.476Z,94382
2015-04-28T02:53:37.773Z,94382
2015-04-28T02:53:56.244Z,94374
2015-04-28T02:54:13.994Z,94380
2015-04-28T02:54:32.291Z,94377
2015-04-28T02:54:50.621Z,94380
2015-04-28T02:55:08.902Z,94380
2015-04-28T02:55:27.199Z,94372
2015-04-28T02:55:45.717Z,94377
2015-04-28T02:56:03.671Z,94386
2015-04-28T02:56:21.983Z,94380
2015-04-28T02:56:40.436Z,94375
2015-04-28T02:56:58.938Z,94378
2015-04-28T02:57:17.329Z,94376
2015-04-28T02:57:35.673Z,94373
2015-04-28T02:57:54.143Z,94376
2015-04-28T02:58:11.909Z,94377
2015-04-28T02:58:30.268Z,94377
2015-04-28T02:58:48.583Z,94378
2015-04-28T02:59:06.958Z,94376
2015-04-28T02:59:25.317Z,94377
2015-04-28T02:59:43.130Z,94382
2015-04-28T03:00:01.586Z,94380
2015-04-28T03:00:19.898Z,94377
2015-04-28T03:00:38.305Z,94377
2015-04-28T03:00:56.603Z,94377
2015-04-28T03:01:14.932Z,94386
2015-04-28T03:01:33.572Z,94378
2015-04-28T03:01:52.230Z,94387
2015-04-28T03:02:10.684Z,94382
2015-04-28T03:02:29.027Z,94382
2015-04-28T03:02:47.420Z,94383
2015-04-28T03:03:05.842Z,94386
2015-04-28T03:03:24.170Z,94386
2015-04-28T03:03:42.482Z,94387
2015-04-28T03:04:00.845Z,94385
2015-04-28T03:04:19.204Z,94382
2015-04-28T03:04:37.501Z,94379
2015-04-28T03:04:56.051Z,94388
2015-04-28T03:05:14.410Z,94385
2015-04-28T03:05:32.707Z,94379
2015-04-28T03:05:51.022Z,94390
2015-04-28T03:06:09.381Z,94388
2015-04-28T03:06:27.865Z,94390
2015-04-28T03:06:45.631Z,94384
2015-04-28T03:07:04.008Z,94390
2015-04-28T03:07:22.305Z,94387
2015-04-28T03:07:40.821Z,94387
2015-04-28T03:07:59.574Z,94387
2015-04-28T03:08:17.964Z,94381
2015-04-28T03:08:35.730Z,94392
2015-04-28T03:08:54.122Z,94387
2015-04-28T03:09:12.232Z,94384
2015-04-28T03:09:30.669Z,94395
2015-04-28T03:09:49.029Z,94398
2015-04-28T03:10:07.546Z,94389
2015-04-28T03:10:25.890Z,94397
2015-04-28T03:10:44.203Z,94394
2015-04-28T03:11:02.018Z,94388
2015-04-28T03:11:20.393Z,94388
2015-04-28T03:11:38.831Z,94397
2015-04-28T03:11:57.161Z,94383
2015-04-28T03:12:15.629Z,94397
2015-04-28T03:12:33.926Z,94394
2015-04-28T03:12:52.225Z,94388
2015-04-28T03:13:10.538Z,94397
2015-04-28T03:13:28.850Z,94391
2015-04-28T03:13:47.241Z,94391
2015-04-28T03:14:05.666Z,94382
2015-04-28T03:14:24.041Z,94393
2015-04-28T03:14:42.431Z,94396
2015-04-28T03:15:00.840Z,94393
2015-04-28T03:15:19.496Z,94390
2015-04-28T03:15:37.871Z,94393
2015-04-28T03:15:56.201Z,94390
2015-04-28T03:16:14.576Z,94390
2015-04-28T03:16:32.873Z,94393
2015-04-28T03:16:51.248Z,94387
2015-04-28T03:17:09.734Z,94390
2015-04-28T03:17:28.078Z,94401
2015-04-28T03:17:46.375Z,94398
2015-04-28T03:18:04.690Z,94393
2015-04-28T03:18:22.987Z,94398
2015-04-28T03:18:41.472Z,94393
2015-04-28T03:18:59.833Z,94401
2015-04-28T03:19:18.177Z,94395
2015-04-28T03:19:36.583Z,94395
2015-04-28T03:19:54.897Z,94395
2015-04-28T03:20:13.241Z,94398
2015-04-28T03:20:31.772Z,94398
2015-04-28T03:20:50.241Z,94401
2015-04-28T03:21:08.838Z,94407
2015-04-28T03:21:27.244Z,94392
2015-04-28T03:21:45.557Z,94401
2015-04-28T03:22:04.043Z,94404
2015-04-28T03:22:22.652Z,94395
2015-04-28T03:22:40.637Z,94392
2015-04-28T03:22:59.076Z,94401
2015-04-28T03:23:17.576Z,94401
2015-04-28T03:23:35.889Z,94401
2015-04-28T03:23:54.172Z,94406
2015-04-28T03:24:12.469Z,94404
2015-04-28T03:24:30.985Z,94398
2015-04-28T03:24:49.297Z,94398
2015-04-28T03:25:07.863Z,94401
2015-04-28T03:25:26.238Z,94401
2015-04-28T03:25:44.581Z,94403
2015-04-28T03:26:02.833Z,94397
2015-04-28T03:26:21.161Z,94403
2015-04-28T03:26:38.958Z,94403
2015-04-28T03:26:57.274Z,94403
2015-04-28T03:27:15.696Z,94406
2015-04-28T03:27:34.133Z,94400
2015-04-28T03:27:52.446Z,94406
2015-04-28T03:28:10.995Z,94411
2015-04-28T03:28:29.495Z,94408
2015-04-28T03:28:47.776Z,94405
2015-04-28T03:29:06.076Z,94405
2015-04-28T03:29:24.576Z,94399
2015-04-28T03:29:42.888Z,94402
2015-04-28T03:30:01.453Z,94408
2015-04-28T03:30:19.750Z,94411
2015-04-28T03:30:38.046Z,94414
2015-04-28T03:30:56.671Z,94408
2015-04-28T03:31:14.970Z,94400
2015-04-28T03:31:33.345Z,94403
2015-04-28T03:31:51.736Z,94408
2015-04-28T03:32:10.129Z,94405
2015-04-28T03:32:28.488Z,94414
2015-04-28T03:32:46.785Z,94405
2015-04-28T03:33:05.194Z,94402
2015-04-28T03:33:23.475Z,94408
2015-04-28T03:33:41.788Z,94411
2015-04-28T03:34:00.102Z,94403
2015-04-28T03:34:18.540Z,94414
2015-04-28T03:34:36.884Z,94417
2015-04-28T03:34:55.321Z,94411
2015-04-28T03:35:13.667Z,94405
2015-04-28T03:35:32.011Z,94411
2015-04-28T03:35:50.401Z,94411
2015-04-28T03:36:08.779Z,94414
2015-04-28T03:36:27.076Z,94409
2015-04-28T03:36:45.576Z,94412
2015-04-28T03:37:03.859Z,94421
2015-04-28T03:37:22.234Z,94409
2015-04-28T03:37:40.531Z,94415
2015-04-28T03:37:58.828Z,94415
2015-04-28T03:38:17.346Z,94415
2015-04-28T03:38:35.799Z,94421
2015-04-28T03:38:53.549Z,94424
2015-04-28T03:39:11.832Z,94418
2015-04-28T03:39:29.598Z,94418
2015-04-28T03:39:47.926Z,94424
2015-04-28T03:40:06.319Z,94421
2015-04-28T03:40:24.882Z,94429
2015-04-28T03:40:43.179Z,94423
2015-04-28T03:41:01.523Z,94423
2015-04-28T03:41:19.837Z,94434
2015-04-28T03:41:38.212Z,94434
2015-04-28T03:41:56.603Z,94429
2015-04-28T03:42:14.245Z,94434
2015-04-28T03:42:32.589Z,94426
2015-04-28T03:42:51.027Z,94437
2015-04-28T03:43:09.311Z,94424
2015-04-28T03:43:27.061Z,94434
2015-04-28T03:43:45.420Z,94427
2015-04-28T03:44:03.717Z,94424
2015-04-28T03:44:22.157Z,94440
2015-04-28T03:44:40.657Z,94422
2015-04-28T03:44:59.000Z,94422
2015-04-28T03:45:16.830Z,94435
2015-04-28T03:45:35.127Z,94425
2015-04-28T03:45:53.471Z,94425
2015-04-28T03:46:11.818Z,94425
2015-04-28T03:46:30.115Z,94438
2015-04-28T03:46:48.412Z,94429
2015-04-28T03:47:06.835Z,94434
2015-04-28T03:47:25.226Z,94434
2015-04-28T03:47:43.742Z,94440
2015-04-28T03:48:02.070Z,94442
2015-04-28T03:48:20.417Z,94420
2015-04-28T03:48:38.729Z,94442
2015-04-28T03:48:57.307Z,94434
2015-04-28T03:49:15.653Z,94437
2015-04-28T03:49:33.997Z,94429
2015-04-28T03:49:51.762Z,94437
2015-04-28T03:50:10.139Z,94443
2015-04-28T03:50:27.889Z,94449
2015-04-28T03:50:46.436Z,94440
2015-04-28T03:51:04.780Z,94443
2015-04-28T03:51:22.657Z,94443
2015-04-28T03:51:40.969Z,94432
2015-04-28T03:51:59.454Z,94449
2015-04-28T03:52:17.785Z,94443
2015-04-28T03:52:36.238Z,94438
2015-04-28T03:52:54.722Z,94443
2015-04-28T03:53:13.021Z,94440
2015-04-28T03:53:31.334Z,94446
2015-04-28T03:53:49.646Z,94446
2015-04-28T03:54:07.974Z,94446
2015-04-28T03:54:26.273Z,94451
2015-04-28T03:54:44.742Z,94451
2015-04-28T03:55:03.226Z,94448
2015-04-28T03:55:21.886Z,94451
2015-04-28T03:55:40.433Z,94454
2015-04-28T03:55:58.776Z,94451
2015-04-28T03:56:17.185Z,94454
2015-04-28T03:56:35.606Z,94451